Aérodrome :
LOGIN :

S'inscrire | Disclaimer

   EN    FR    IT 

 










Légende :    VFR   VFR Marginal   IFR   IFR Intensif   IFR Très Intensif
Visi : 
Plafond : 
>= 8 km
>= 3000ft
5 à 8 km
1000 à 3000 ft
1500m à 5 km
500 à 1000 ft
800 à 1500m
200 à 500 ft
< 800m
< 200 ft
Symboles :   Orages  Brouillard  Fortes neiges  Fortes précipitations  Vent > 20 kt
SIGMETs :   Divers  Orages  Givrage  Turbulence  Onde Orograph.  Cendres Volcan.







- Altitude de l'aérodrome : 392 ft
- Code IATA : CDG
- Voir les cartes d'approche


LFPG - Paris-Aeroport Charles De Gaulle

DERNIER METAR :
  • 130400Z 20010KT 9999 FEW011 10/09 Q1022 NOSIG

METARs EXPIRÉS :
  • 130330Z 20008KT 9999 BKN011 10/09 Q1022 NOSIG
  • 130300Z 20010KT 9999 FEW011 BKN180 10/09 Q1021 NOSIG
  • 130230Z 21010KT 9999 BKN009 BKN140 11/09 Q1021 NOSIG
  • 130200Z 20009KT 9999 BKN007 BKN140 11/09 Q1021 NOSIG
  • 130130Z 20009KT 7000 BKN006 11/09 Q1021 NOSIG

TAF AMD TAF LFPG
Valide du 13 à 03h jusqu'au 14 à 06h UTC


130309Z 1303/1406 19010KT CAVOK TX13/1314Z TN04/1406Z
TEMPO 1303/1307 BKN007
BECMG 1401/1403 3000 BR
BECMG 1403/1405 0500 FG BKN001
ATIS : +33 1 48 62 10 92
Pas de NOTAMs connus pour ce terrain.



MET'MAP, la Météo Aéronautique d'un coup d'oeil ! - Copyright ORBIFLY Décembre 2007 - Disclaimer

ORBIFLY MET'MAP TEAM :

Programmation & Développement : Alexandra Zaïnal
Conception & Développement : Baudouin d'Aumeries
Co-Programmation & Développement : Marc-Olivier Méhu
Soutien technique & logistique : Manuel Goepfert

Contact : metmap@orbifly.com




SOURCES & CREDITS :

   NOAA